sensor_id;sensor_type;location;lat;lon;timestamp;P1;durP1;ratioP1;P2;durP2;ratioP2
56130;SDS011;42000;44.774;20.506;2023-03-03T06:07:16;46.97;;;24.13;;
56130;SDS011;42000;44.774;20.506;2023-03-03T06:09:42;48.97;;;25.90;;
56130;SDS011;42000;44.774;20.506;2023-03-03T06:12:08;51.72;;;24.90;;
56130;SDS011;42000;44.774;20.506;2023-03-03T06:14:34;50.65;;;25.92;;
56130;SDS011;42000;44.774;20.506;2023-03-03T06:17:00;53.80;;;27.90;;
56130;SDS011;42000;44.774;20.506;2023-03-03T06:19:27;44.22;;;24.40;;
56130;SDS011;42000;44.774;20.506;2023-03-03T06:21:53;50.72;;;28.20;;
56130;SDS011;42000;44.774;20.506;2023-03-03T06:24:19;48.28;;;25.83;;
56130;SDS011;42000;44.774;20.506;2023-03-03T06:26:45;46.60;;;25.08;;
56130;SDS011;42000;44.774;20.506;2023-03-03T06:29:11;48.95;;;25.20;;
56130;SDS011;42000;44.774;20.506;2023-03-03T06:31:37;47.65;;;26.00;;
56130;SDS011;42000;44.774;20.506;2023-03-03T06:34:03;50.25;;;25.55;;
56130;SDS011;42000;44.774;20.506;2023-03-03T06:36:29;49.20;;;26.75;;
56130;SDS011;42000;44.774;20.506;2023-03-03T06:38:55;48.92;;;25.83;;
56130;SDS011;42000;44.774;20.506;2023-03-03T06:41:21;47.22;;;25.92;;
56130;SDS011;42000;44.774;20.506;2023-03-03T06:43:47;52.63;;;27.38;;
56130;SDS011;42000;44.774;20.506;2023-03-03T06:46:13;51.10;;;27.40;;
56130;SDS011;42000;44.774;20.506;2023-03-03T06:48:39;53.88;;;27.77;;
56130;SDS011;42000;44.774;20.506;2023-03-03T06:51:11;50.58;;;27.08;;
56130;SDS011;42000;44.774;20.506;2023-03-03T06:53:41;51.17;;;26.98;;
56130;SDS011;42000;44.774;20.506;2023-03-03T06:56:07;57.63;;;28.33;;
56130;SDS011;42000;44.774;20.506;2023-03-03T06:58:33;53.10;;;28.42;;
56130;SDS011;42000;44.774;20.506;2023-03-03T07:01:00;53.20;;;28.80;;
56130;SDS011;42000;44.774;20.506;2023-03-03T07:03:29;64.22;;;30.02;;
56130;SDS011;42000;44.774;20.506;2023-03-03T07:05:57;60.45;;;32.58;;
56130;SDS011;42000;44.774;20.506;2023-03-03T07:08:24;57.47;;;30.50;;
56130;SDS011;42000;44.774;20.506;2023-03-03T07:10:51;69.47;;;34.28;;
56130;SDS011;42000;44.774;20.506;2023-03-03T07:13:24;63.97;;;32.13;;
56130;SDS011;42000;44.774;20.506;2023-03-03T07:15:54;52.78;;;29.65;;
56130;SDS011;42000;44.774;20.506;2023-03-03T07:18:25;54.78;;;27.45;;
56130;SDS011;42000;44.774;20.506;2023-03-03T07:20:56;48.72;;;26.40;;
56130;SDS011;42000;44.774;20.506;2023-03-03T07:23:23;59.97;;;30.98;;
56130;SDS011;42000;44.774;20.506;2023-03-03T07:25:50;44.15;;;25.55;;
56130;SDS011;42000;44.774;20.506;2023-03-03T07:28:24;47.00;;;28.00;;
56130;SDS011;42000;44.774;20.506;2023-03-03T07:30:54;43.65;;;24.45;;
56130;SDS011;42000;44.774;20.506;2023-03-03T07:33:25;45.35;;;24.65;;
56130;SDS011;42000;44.774;20.506;2023-03-03T07:35:55;44.50;;;25.27;;
56130;SDS011;42000;44.774;20.506;2023-03-03T07:40:49;96.38;;;48.10;;
56130;SDS011;42000;44.774;20.506;2023-03-03T07:43:37;47.55;;;26.58;;
56130;SDS011;42000;44.774;20.506;2023-03-03T07:48:47;44.90;;;23.55;;
56130;SDS011;42000;44.774;20.506;2023-03-03T07:53:39;54.15;;;28.50;;
56130;SDS011;42000;44.774;20.506;2023-03-03T07:56:14;57.95;;;30.48;;
56130;SDS011;42000;44.774;20.506;2023-03-03T07:58:42;58.42;;;32.08;;
56130;SDS011;42000;44.774;20.506;2023-03-03T08:03:44;59.85;;;31.63;;
56130;SDS011;42000;44.774;20.506;2023-03-03T08:08:59;58.30;;;31.15;;
56130;SDS011;42000;44.774;20.506;2023-03-03T08:11:26;58.80;;;31.23;;
56130;SDS011;42000;44.774;20.506;2023-03-03T08:13:52;56.60;;;30.55;;
56130;SDS011;42000;44.774;20.506;2023-03-03T08:19:14;52.70;;;28.55;;
56130;SDS011;42000;44.774;20.506;2023-03-03T08:21:42;50.60;;;28.27;;
56130;SDS011;42000;44.774;20.506;2023-03-03T08:24:08;49.85;;;27.63;;
56130;SDS011;42000;44.774;20.506;2023-03-03T08:26:34;50.20;;;28.17;;
56130;SDS011;42000;44.774;20.506;2023-03-03T08:29:00;52.42;;;29.50;;
56130;SDS011;42000;44.774;20.506;2023-03-03T08:31:26;57.03;;;30.05;;
56130;SDS011;42000;44.774;20.506;2023-03-03T08:33:53;54.40;;;28.48;;
56130;SDS011;42000;44.774;20.506;2023-03-03T08:36:19;52.75;;;29.48;;
56130;SDS011;42000;44.774;20.506;2023-03-03T08:38:45;49.03;;;27.40;;
56130;SDS011;42000;44.774;20.506;2023-03-03T08:41:11;60.47;;;31.02;;
56130;SDS011;42000;44.774;20.506;2023-03-03T08:43:37;50.97;;;28.88;;
56130;SDS011;42000;44.774;20.506;2023-03-03T08:46:04;49.90;;;28.33;;
56130;SDS011;42000;44.774;20.506;2023-03-03T08:48:30;50.58;;;28.42;;
56130;SDS011;42000;44.774;20.506;2023-03-03T08:50:57;52.42;;;29.65;;
56130;SDS011;42000;44.774;20.506;2023-03-03T08:53:23;54.33;;;28.73;;
56130;SDS011;42000;44.774;20.506;2023-03-03T08:55:49;54.35;;;31.08;;
56130;SDS011;42000;44.774;20.506;2023-03-03T08:58:16;58.03;;;29.98;;
56130;SDS011;42000;44.774;20.506;2023-03-03T09:00:42;49.88;;;30.08;;
56130;SDS011;42000;44.774;20.506;2023-03-03T09:03:08;51.15;;;30.60;;
56130;SDS011;42000;44.774;20.506;2023-03-03T09:05:35;49.83;;;28.63;;
56130;SDS011;42000;44.774;20.506;2023-03-03T09:08:02;51.90;;;28.52;;
56130;SDS011;42000;44.774;20.506;2023-03-03T09:10:28;49.65;;;28.77;;
56130;SDS011;42000;44.774;20.506;2023-03-03T09:12:56;48.63;;;28.42;;
56130;SDS011;42000;44.774;20.506;2023-03-03T09:15:26;43.88;;;26.85;;
56130;SDS011;42000;44.774;20.506;2023-03-03T09:17:53;53.60;;;29.45;;
56130;SDS011;42000;44.774;20.506;2023-03-03T09:22:54;49.58;;;27.90;;
56130;SDS011;42000;44.774;20.506;2023-03-03T09:25:31;40.97;;;25.58;;
56130;SDS011;42000;44.774;20.506;2023-03-03T09:27:57;47.63;;;26.27;;
56130;SDS011;42000;44.774;20.506;2023-03-03T09:30:37;42.67;;;26.50;;
56130;SDS011;42000;44.774;20.506;2023-03-03T09:36:10;46.45;;;26.50;;
56130;SDS011;42000;44.774;20.506;2023-03-03T09:38:39;46.50;;;27.38;;
56130;SDS011;42000;44.774;20.506;2023-03-03T09:49:11;52.28;;;28.73;;
56130;SDS011;42000;44.774;20.506;2023-03-03T09:54:50;47.70;;;26.65;;
56130;SDS011;42000;44.774;20.506;2023-03-03T09:59:28;46.78;;;26.70;;
56130;SDS011;42000;44.774;20.506;2023-03-03T10:02:01;44.83;;;26.20;;
56130;SDS011;42000;44.774;20.506;2023-03-03T10:05:06;47.85;;;27.65;;
56130;SDS011;42000;44.774;20.506;2023-03-03T10:13:29;48.30;;;27.92;;
56130;SDS011;42000;44.774;20.506;2023-03-03T10:15:59;50.58;;;28.83;;
56130;SDS011;42000;44.774;20.506;2023-03-03T10:18:38;50.25;;;28.33;;
56130;SDS011;42000;44.774;20.506;2023-03-03T10:52:26;44.38;;;25.73;;
56130;SDS011;42000;44.774;20.506;2023-03-03T10:55:14;49.97;;;26.58;;
56130;SDS011;42000;44.774;20.506;2023-03-03T10:57:45;42.22;;;24.27;;
56130;SDS011;42000;44.774;20.506;2023-03-03T11:08:20;43.15;;;25.13;;
56130;SDS011;42000;44.774;20.506;2023-03-03T11:10:53;41.97;;;23.02;;
56130;SDS011;42000;44.774;20.506;2023-03-03T11:13:39;39.97;;;24.42;;
56130;SDS011;42000;44.774;20.506;2023-03-03T11:28:49;40.05;;;22.50;;
56130;SDS011;42000;44.774;20.506;2023-03-03T11:39:07;40.92;;;23.27;;
56130;SDS011;42000;44.774;20.506;2023-03-03T11:46:32;37.28;;;22.02;;
56130;SDS011;42000;44.774;20.506;2023-03-03T11:49:04;37.92;;;20.67;;
56130;SDS011;42000;44.774;20.506;2023-03-03T11:54:04;36.97;;;21.52;;
56130;SDS011;42000;44.774;20.506;2023-03-03T11:56:44;31.77;;;19.13;;
56130;SDS011;42000;44.774;20.506;2023-03-03T12:01:55;37.83;;;20.38;;
56130;SDS011;42000;44.774;20.506;2023-03-03T12:04:43;34.63;;;19.90;;
56130;SDS011;42000;44.774;20.506;2023-03-03T12:10:16;33.80;;;19.67;;
56130;SDS011;42000;44.774;20.506;2023-03-03T12:12:44;32.45;;;18.92;;
56130;SDS011;42000;44.774;20.506;2023-03-03T12:15:21;35.10;;;19.23;;
56130;SDS011;42000;44.774;20.506;2023-03-03T12:25:35;33.10;;;20.52;;
56130;SDS011;42000;44.774;20.506;2023-03-03T12:28:18;33.03;;;20.23;;
56130;SDS011;42000;44.774;20.506;2023-03-03T12:30:53;36.75;;;21.98;;
56130;SDS011;42000;44.774;20.506;2023-03-03T12:48:52;29.20;;;17.90;;
56130;SDS011;42000;44.774;20.506;2023-03-03T12:56:45;29.67;;;18.08;;
56130;SDS011;42000;44.774;20.506;2023-03-03T12:59:30;31.87;;;18.27;;
56130;SDS011;42000;44.774;20.506;2023-03-03T13:02:04;33.17;;;17.92;;
56130;SDS011;42000;44.774;20.506;2023-03-03T13:04:35;31.45;;;18.38;;
56130;SDS011;42000;44.774;20.506;2023-03-03T13:07:18;30.55;;;17.17;;
56130;SDS011;42000;44.774;20.506;2023-03-03T13:14:50;29.38;;;18.83;;
56130;SDS011;42000;44.774;20.506;2023-03-03T13:17:20;30.75;;;18.25;;
56130;SDS011;42000;44.774;20.506;2023-03-03T13:22:34;44.80;;;26.40;;
56130;SDS011;42000;44.774;20.506;2023-03-03T13:27:40;39.63;;;23.00;;
56130;SDS011;42000;44.774;20.506;2023-03-03T13:32:53;32.83;;;18.67;;
56130;SDS011;42000;44.774;20.506;2023-03-03T13:38:23;32.30;;;18.25;;
56130;SDS011;42000;44.774;20.506;2023-03-03T13:40:53;33.63;;;18.70;;
56130;SDS011;42000;44.774;20.506;2023-03-03T13:43:25;27.98;;;16.40;;
56130;SDS011;42000;44.774;20.506;2023-03-03T14:04:06;26.63;;;14.90;;
56130;SDS011;42000;44.774;20.506;2023-03-03T14:06:38;25.67;;;14.02;;
56130;SDS011;42000;44.774;20.506;2023-03-03T14:09:27;23.25;;;13.32;;
56130;SDS011;42000;44.774;20.506;2023-03-03T14:12:03;26.42;;;13.75;;
56130;SDS011;42000;44.774;20.506;2023-03-03T14:17:12;25.88;;;15.57;;
56130;SDS011;42000;44.774;20.506;2023-03-03T14:19:43;24.92;;;15.35;;
56130;SDS011;42000;44.774;20.506;2023-03-03T14:24:53;28.08;;;16.33;;
56130;SDS011;42000;44.774;20.506;2023-03-03T14:27:24;28.92;;;17.45;;
56130;SDS011;42000;44.774;20.506;2023-03-03T14:29:51;26.60;;;15.88;;
56130;SDS011;42000;44.774;20.506;2023-03-03T14:32:24;34.60;;;17.40;;
56130;SDS011;42000;44.774;20.506;2023-03-03T14:35:00;27.95;;;16.80;;
56130;SDS011;42000;44.774;20.506;2023-03-03T14:37:42;30.70;;;17.65;;
56130;SDS011;42000;44.774;20.506;2023-03-03T14:42:36;44.78;;;26.13;;
56130;SDS011;42000;44.774;20.506;2023-03-03T14:45:50;46.67;;;26.38;;
56130;SDS011;42000;44.774;20.506;2023-03-03T14:47:50;43.80;;;27.33;;
56130;SDS011;42000;44.774;20.506;2023-03-03T14:50:30;47.85;;;28.02;;
56130;SDS011;42000;44.774;20.506;2023-03-03T14:53:19;49.13;;;28.08;;
56130;SDS011;42000;44.774;20.506;2023-03-03T14:55:49;47.55;;;28.27;;
56130;SDS011;42000;44.774;20.506;2023-03-03T14:58:35;50.00;;;30.67;;
56130;SDS011;42000;44.774;20.506;2023-03-03T15:03:33;51.85;;;30.25;;
56130;SDS011;42000;44.774;20.506;2023-03-03T15:06:06;49.67;;;29.85;;
56130;SDS011;42000;44.774;20.506;2023-03-03T15:08:35;49.42;;;29.85;;
56130;SDS011;42000;44.774;20.506;2023-03-03T15:13:43;53.35;;;30.85;;
56130;SDS011;42000;44.774;20.506;2023-03-03T15:16:23;50.53;;;30.30;;
56130;SDS011;42000;44.774;20.506;2023-03-03T15:21:36;50.85;;;29.77;;
56130;SDS011;42000;44.774;20.506;2023-03-03T15:31:41;56.60;;;30.17;;
56130;SDS011;42000;44.774;20.506;2023-03-03T15:36:46;58.40;;;31.65;;
56130;SDS011;42000;44.774;20.506;2023-03-03T15:44:43;56.42;;;31.45;;
56130;SDS011;42000;44.774;20.506;2023-03-03T15:52:28;60.13;;;32.47;;
56130;SDS011;42000;44.774;20.506;2023-03-03T16:02:53;55.13;;;30.92;;
56130;SDS011;42000;44.774;20.506;2023-03-03T16:11:01;60.28;;;31.98;;
56130;SDS011;42000;44.774;20.506;2023-03-03T16:13:45;56.50;;;32.47;;
56130;SDS011;42000;44.774;20.506;2023-03-03T16:26:40;65.07;;;35.90;;
56130;SDS011;42000;44.774;20.506;2023-03-03T16:29:12;69.93;;;35.53;;
56130;SDS011;42000;44.774;20.506;2023-03-03T16:37:06;72.78;;;36.97;;
56130;SDS011;42000;44.774;20.506;2023-03-03T16:42:06;80.75;;;39.88;;
56130;SDS011;42000;44.774;20.506;2023-03-03T16:47:18;81.78;;;42.17;;
56130;SDS011;42000;44.774;20.506;2023-03-03T16:49:54;84.10;;;42.45;;
56130;SDS011;42000;44.774;20.506;2023-03-03T16:52:31;83.43;;;43.17;;
56130;SDS011;42000;44.774;20.506;2023-03-03T17:00:12;88.97;;;43.92;;
56130;SDS011;42000;44.774;20.506;2023-03-03T17:03:02;88.68;;;44.17;;
56130;SDS011;42000;44.774;20.506;2023-03-03T17:05:42;88.35;;;44.15;;
56130;SDS011;42000;44.774;20.506;2023-03-03T17:10:43;91.43;;;46.75;;
56130;SDS011;42000;44.774;20.506;2023-03-03T17:15:42;87.72;;;43.75;;
56130;SDS011;42000;44.774;20.506;2023-03-03T17:18:11;101.03;;;48.03;;
56130;SDS011;42000;44.774;20.506;2023-03-03T17:41:50;99.13;;;49.88;;
56130;SDS011;42000;44.774;20.506;2023-03-03T17:51:50;107.00;;;50.42;;
56130;SDS011;42000;44.774;20.506;2023-03-03T17:54:23;107.45;;;50.65;;
56130;SDS011;42000;44.774;20.506;2023-03-03T18:21:14;102.90;;;48.60;;
56130;SDS011;42000;44.774;20.506;2023-03-03T18:23:43;106.95;;;50.60;;
56130;SDS011;42000;44.774;20.506;2023-03-03T18:28:48;107.03;;;49.20;;
56130;SDS011;42000;44.774;20.506;2023-03-03T18:31:19;103.57;;;48.70;;
56130;SDS011;42000;44.774;20.506;2023-03-03T18:34:02;109.55;;;50.63;;
56130;SDS011;42000;44.774;20.506;2023-03-03T18:39:02;108.63;;;50.30;;
56130;SDS011;42000;44.774;20.506;2023-03-03T18:41:29;109.28;;;51.53;;
56130;SDS011;42000;44.774;20.506;2023-03-03T18:44:22;114.80;;;54.40;;
56130;SDS011;42000;44.774;20.506;2023-03-03T18:46:48;120.80;;;53.77;;
56130;SDS011;42000;44.774;20.506;2023-03-03T18:49:15;115.82;;;50.67;;
56130;SDS011;42000;44.774;20.506;2023-03-03T18:59:07;117.97;;;50.05;;
56130;SDS011;42000;44.774;20.506;2023-03-03T19:01:41;114.45;;;49.33;;
56130;SDS011;42000;44.774;20.506;2023-03-03T19:09:03;109.38;;;48.67;;
56130;SDS011;42000;44.774;20.506;2023-03-03T19:11:32;108.97;;;48.80;;
56130;SDS011;42000;44.774;20.506;2023-03-03T19:16:52;106.32;;;45.47;;
56130;SDS011;42000;44.774;20.506;2023-03-03T19:19:19;103.93;;;46.95;;
56130;SDS011;42000;44.774;20.506;2023-03-03T19:21:47;101.25;;;44.90;;
56130;SDS011;42000;44.774;20.506;2023-03-03T19:29:52;101.03;;;43.72;;
56130;SDS011;42000;44.774;20.506;2023-03-03T19:43:28;101.80;;;44.97;;
56130;SDS011;42000;44.774;20.506;2023-03-03T19:48:26;100.30;;;43.65;;
56130;SDS011;42000;44.774;20.506;2023-03-03T19:54:19;112.50;;;45.65;;
56130;SDS011;42000;44.774;20.506;2023-03-03T19:56:55;104.50;;;43.53;;
56130;SDS011;42000;44.774;20.506;2023-03-03T19:59:36;102.65;;;44.33;;
56130;SDS011;42000;44.774;20.506;2023-03-03T20:10:11;99.70;;;44.97;;
56130;SDS011;42000;44.774;20.506;2023-03-03T20:15:40;101.30;;;44.13;;
56130;SDS011;42000;44.774;20.506;2023-03-03T20:23:20;95.72;;;44.50;;
56130;SDS011;42000;44.774;20.506;2023-03-03T20:26:00;100.45;;;46.25;;
56130;SDS011;42000;44.774;20.506;2023-03-03T20:28:45;100.78;;;45.55;;
56130;SDS011;42000;44.774;20.506;2023-03-03T20:36:44;110.72;;;45.90;;
56130;SDS011;42000;44.774;20.506;2023-03-03T20:47:01;106.68;;;43.30;;
56130;SDS011;42000;44.774;20.506;2023-03-03T20:52:06;108.80;;;44.85;;
56130;SDS011;42000;44.774;20.506;2023-03-03T20:54:48;111.63;;;44.83;;
56130;SDS011;42000;44.774;20.506;2023-03-03T21:02:47;114.97;;;45.33;;
56130;SDS011;42000;44.774;20.506;2023-03-03T21:05:17;106.65;;;44.05;;
56130;SDS011;42000;44.774;20.506;2023-03-03T21:07:55;112.30;;;44.65;;
56130;SDS011;42000;44.774;20.506;2023-03-03T21:10:26;110.85;;;43.97;;
56130;SDS011;42000;44.774;20.506;2023-03-03T21:12:55;106.10;;;44.50;;
56130;SDS011;42000;44.774;20.506;2023-03-03T21:15:30;117.13;;;46.28;;
56130;SDS011;42000;44.774;20.506;2023-03-03T21:17:58;112.35;;;45.20;;
56130;SDS011;42000;44.774;20.506;2023-03-03T21:22:50;116.25;;;44.95;;
56130;SDS011;42000;44.774;20.506;2023-03-03T21:36:16;116.55;;;45.30;;
56130;SDS011;42000;44.774;20.506;2023-03-03T21:38:43;107.32;;;44.63;;
56130;SDS011;42000;44.774;20.506;2023-03-03T21:41:10;120.25;;;47.08;;
56130;SDS011;42000;44.774;20.506;2023-03-03T21:43:39;121.85;;;46.75;;
56130;SDS011;42000;44.774;20.506;2023-03-03T21:46:05;117.18;;;46.95;;
56130;SDS011;42000;44.774;20.506;2023-03-03T21:48:31;118.97;;;48.75;;
56130;SDS011;42000;44.774;20.506;2023-03-03T21:50:57;121.53;;;48.35;;
56130;SDS011;42000;44.774;20.506;2023-03-03T21:53:23;120.25;;;48.42;;
56130;SDS011;42000;44.774;20.506;2023-03-03T21:55:51;126.53;;;49.25;;
56130;SDS011;42000;44.774;20.506;2023-03-03T21:58:17;117.35;;;46.92;;
56130;SDS011;42000;44.774;20.506;2023-03-03T22:00:43;125.43;;;47.60;;
56130;SDS011;42000;44.774;20.506;2023-03-03T22:03:10;125.78;;;48.05;;
56130;SDS011;42000;44.774;20.506;2023-03-03T22:05:36;119.95;;;46.92;;
56130;SDS011;42000;44.774;20.506;2023-03-03T22:08:02;122.05;;;46.05;;
56130;SDS011;42000;44.774;20.506;2023-03-03T22:10:28;129.00;;;48.20;;
56130;SDS011;42000;44.774;20.506;2023-03-03T22:12:54;119.40;;;45.83;;
56130;SDS011;42000;44.774;20.506;2023-03-03T22:15:20;125.50;;;47.17;;
56130;SDS011;42000;44.774;20.506;2023-03-03T22:17:46;122.43;;;44.15;;
56130;SDS011;42000;44.774;20.506;2023-03-03T22:20:13;119.88;;;47.08;;
56130;SDS011;42000;44.774;20.506;2023-03-03T22:22:39;123.47;;;47.15;;
56130;SDS011;42000;44.774;20.506;2023-03-03T22:25:06;127.47;;;45.88;;
56130;SDS011;42000;44.774;20.506;2023-03-03T22:27:32;122.97;;;47.58;;
56130;SDS011;42000;44.774;20.506;2023-03-03T22:29:58;138.15;;;47.42;;
56130;SDS011;42000;44.774;20.506;2023-03-03T22:32:24;125.68;;;45.05;;
56130;SDS011;42000;44.774;20.506;2023-03-03T22:34:51;123.85;;;45.03;;
56130;SDS011;42000;44.774;20.506;2023-03-03T22:37:17;136.05;;;45.72;;
56130;SDS011;42000;44.774;20.506;2023-03-03T22:39:43;122.78;;;44.92;;
56130;SDS011;42000;44.774;20.506;2023-03-03T22:42:09;132.57;;;44.83;;
56130;SDS011;42000;44.774;20.506;2023-03-03T22:44:35;136.73;;;45.30;;
56130;SDS011;42000;44.774;20.506;2023-03-03T22:47:01;139.50;;;45.78;;
56130;SDS011;42000;44.774;20.506;2023-03-03T22:49:28;137.95;;;43.85;;
56130;SDS011;42000;44.774;20.506;2023-03-03T22:51:54;122.82;;;42.58;;
56130;SDS011;42000;44.774;20.506;2023-03-03T22:54:22;134.23;;;43.88;;
56130;SDS011;42000;44.774;20.506;2023-03-03T22:56:48;135.40;;;42.80;;
56130;SDS011;42000;44.774;20.506;2023-03-03T22:59:14;133.00;;;43.13;;
56130;SDS011;42000;44.774;20.506;2023-03-03T23:01:40;117.95;;;41.03;;
56130;SDS011;42000;44.774;20.506;2023-03-03T23:04:06;113.93;;;41.17;;
56130;SDS011;42000;44.774;20.506;2023-03-03T23:06:32;125.28;;;42.83;;
56130;SDS011;42000;44.774;20.506;2023-03-03T23:08:59;118.43;;;41.53;;
56130;SDS011;42000;44.774;20.506;2023-03-03T23:11:25;119.50;;;41.13;;
56130;SDS011;42000;44.774;20.506;2023-03-03T23:13:51;109.43;;;39.20;;
56130;SDS011;42000;44.774;20.506;2023-03-03T23:16:17;114.72;;;40.83;;
56130;SDS011;42000;44.774;20.506;2023-03-03T23:18:43;116.38;;;40.00;;
56130;SDS011;42000;44.774;20.506;2023-03-03T23:21:09;104.65;;;37.90;;
56130;SDS011;42000;44.774;20.506;2023-03-03T23:23:35;100.82;;;37.75;;
56130;SDS011;42000;44.774;20.506;2023-03-03T23:26:01;107.13;;;39.47;;
56130;SDS011;42000;44.774;20.506;2023-03-03T23:28:27;109.05;;;37.83;;
56130;SDS011;42000;44.774;20.506;2023-03-03T23:30:54;110.28;;;38.58;;
56130;SDS011;42000;44.774;20.506;2023-03-03T23:33:20;103.78;;;38.50;;
56130;SDS011;42000;44.774;20.506;2023-03-03T23:35:46;108.78;;;38.00;;
56130;SDS011;42000;44.774;20.506;2023-03-03T23:38:13;110.97;;;38.53;;
56130;SDS011;42000;44.774;20.506;2023-03-03T23:40:41;112.30;;;38.55;;
56130;SDS011;42000;44.774;20.506;2023-03-03T23:43:08;113.72;;;37.78;;
56130;SDS011;42000;44.774;20.506;2023-03-03T23:45:34;105.85;;;37.55;;
56130;SDS011;42000;44.774;20.506;2023-03-03T23:48:00;111.75;;;37.92;;
56130;SDS011;42000;44.774;20.506;2023-03-03T23:50:26;108.55;;;37.28;;
56130;SDS011;42000;44.774;20.506;2023-03-03T23:52:52;115.60;;;39.67;;
56130;SDS011;42000;44.774;20.506;2023-03-03T23:55:18;104.20;;;36.95;;
56130;SDS011;42000;44.774;20.506;2023-03-03T23:57:44;114.05;;;38.75;;
